Plato — 8PRX — position and weather

sailwx.info

Track history (hours):
 
Tides and Currents Weather Stations Pressure Air Temp Water Temp Dewpoint Dewpoint Depression Visibility Wind Speed Wind Dir Waves Ship Positions

Plato

Last reported at 2014-Dec-21 23:31 UTC. Time now 2014-Dec-21 23:55 UTC.
Position N 53°27' E 014°36'.

Length 88 m; draft 5 m.

Type: Ship. MMSI: 314189000.

Date/timePositionNaut miles runAvg speedWind from/ knotsBaromVisibWave heightAir tempDewpointWater temp
2014-Dec-21 23:31N 53°27' E 014°36'0 0.0
2014-Dec-21 22:33N 53°27' E 014°36'0 0.0
2014-Dec-21 21:32N 53°27' E 014°36'0 0.0
2014-Dec-21 20:32N 53°27' E 014°36'0 0.0
2014-Dec-21 19:31N 53°27' E 014°36'0 0.0
2014-Dec-21 18:31N 53°27' E 014°36'0 0.0
2014-Dec-21 17:33N 53°27' E 014°36'0 0.0
2014-Dec-21 16:32N 53°27' E 014°36'0 0.0
2014-Dec-21 15:32N 53°27' E 014°36'0 0.0
2014-Dec-21 14:31N 53°27' E 014°36'0 0.0
2014-Dec-21 13:31N 53°27' E 014°36'0 0.0
2014-Dec-21 12:33N 53°27' E 014°36'0 0.0
2014-Dec-21 11:32N 53°27' E 014°36'0 0.0
2014-Dec-21 10:32N 53°27' E 014°36'0 0.0
2014-Dec-21 09:31N 53°27' E 014°36'0 0.0
2014-Dec-21 08:32N 53°27' E 014°36'0 0.0
2014-Dec-21 07:31N 53°27' E 014°36'0 0.0
2014-Dec-21 06:31N 53°27' E 014°36'0 0.0
2014-Dec-21 05:30N 53°27' E 014°36'0 0.0
2014-Dec-21 04:32N 53°27' E 014°36'0 0.0
2014-Dec-21 03:32N 53°27' E 014°36'0 0.0
2014-Dec-21 02:31N 53°27' E 014°36'0 0.0
2014-Dec-21 01:31N 53°27' E 014°36'0 0.0
2014-Dec-21 00:33N 53°27' E 014°36'0 0.0
2014-Dec-20 23:31N 53°27' E 014°36'0 0.0
2014-Dec-20 22:34N 53°27' E 014°36'0 0.0
2014-Dec-20 21:33N 53°27' E 014°36'0 0.0
2014-Dec-20 20:33N 53°27' E 014°36'0 0.0
2014-Dec-20 19:32N 53°27' E 014°36'0 0.0
2014-Dec-20 18:31N 53°27' E 014°36'0 0.0
2014-Dec-20 17:31N 53°27' E 014°36'0 0.0
2014-Dec-20 16:33N 53°27' E 014°36'0 0.0
2014-Dec-20 15:31N 53°27' E 014°36'0 0.0
2014-Dec-20 14:33N 53°27' E 014°36'0 0.0
2014-Dec-20 13:32N 53°27' E 014°36'0 0.0
2014-Dec-20 12:32N 53°27' E 014°36'0 0.0
2014-Dec-20 11:33N 53°27' E 014°36'0 0.0
2014-Dec-20 10:32N 53°27' E 014°36'0 0.0
2014-Dec-20 09:33N 53°27' E 014°36'0 0.0
2014-Dec-20 08:31N 53°27' E 014°36'0 0.0
2014-Dec-20 07:33N 53°27' E 014°36'0 0.0
2014-Dec-20 06:33N 53°27' E 014°36'0 0.0
2014-Dec-20 05:33N 53°27' E 014°36'0 0.0
2014-Dec-20 04:32N 53°27' E 014°36'0 0.0
2014-Dec-20 03:32N 53°27' E 014°36'0 0.0
2014-Dec-20 02:31N 53°27' E 014°36'0 0.0
2014-Dec-20 01:33N 53°27' E 014°36'0 0.0
2014-Dec-20 00:33N 53°27' E 014°36'5 4.6
2014-Dec-19 23:33N 53°32' E 014°38'9 9.1
2014-Dec-19 22:32N 53°40' E 014°32'1010.1
2014-Dec-19 21:33N 53°48' E 014°21'16 8.2
2014-Dec-19 19:33N 54°04' E 014°14'9 9.0
2014-Dec-19 18:33N 54°12' E 014°08'67 9.5
2014-Dec-19 11:31N 55°08' E 013°06'9 9.0
2014-Dec-19 10:33N 55°13' E 012°54'9 9.3
2014-Dec-19 09:33N 55°18' E 012°40'9 8.6
2014-Dec-19 08:33N 55°26' E 012°40'10 9.8
2014-Dec-19 07:33N 55°36' E 012°42'1110.7
2014-Dec-19 06:33N 55°47' E 012°42'9 9.3
2014-Dec-19 05:33N 55°56' E 012°38'9 9.3
2014-Dec-19 04:33N 56°05' E 012°35'10 9.6
2014-Dec-19 03:33N 56°11' E 012°21'26 8.0
2014-Dec-19 00:16N 56°33' E 011°57'7 8.0
2014-Dec-18 23:22N 56°40' E 011°54'6 7.7
2014-Dec-18 22:33N 56°46' E 011°51'9 8.2
2014-Dec-18 21:27N 56°55' E 011°45'16 8.4
2014-Dec-18 19:33N 57°10' E 011°36'9 9.0
2014-Dec-18 18:33N 57°18' E 011°30'8 8.0
2014-Dec-18 17:33N 57°26' E 011°25'8 7.9
2014-Dec-18 16:33N 57°32' E 011°15'8 8.0
2014-Dec-18 15:33N 57°37' E 011°04'19 8.3
2014-Dec-18 13:13N 57°47' E 010°33'145 8.2
2014-Dec-17 19:33N 58°14' E 006°03'9 9.0
2014-Dec-17 18:33N 58°20' E 005°51'8 7.9
2014-Dec-17 17:32N 58°25' E 005°40'32 6.5
2014-Dec-17 12:33N 58°52' E 005°05'7 6.6
2014-Dec-17 11:31N 58°58' E 004°58'99 2.7
2014-Dec-15 22:32N 60°37' E 005°02'  
2014-Dec-13 15:18N 63°35' E 009°28'7 8.7
2014-Dec-13 14:27N 63°39' E 009°43'7 7.7
2014-Dec-13 13:33N 63°33' E 009°52'8 8.2
2014-Dec-13 12:33N 63°30' E 010°08'1010.1
2014-Dec-13 11:33N 63°35' E 010°28'1010.2
2014-Dec-13 10:33N 63°41' E 010°46'1110.5
2014-Dec-13 09:28N 63°49' E 011°04'3 0.1
2014-Dec-12 08:33N 63°47' E 011°00'1010.3
2014-Dec-12 07:33N 63°39' E 010°45'1010.3
2014-Dec-12 06:33N 63°32' E 010°28'7 7.3
2014-Dec-12 05:33N 63°28' E 010°14'8 8.0
2014-Dec-12 04:33N 63°29' E 009°56'10 9.2
2014-Dec-12 03:31N 63°38' E 009°47'  
Track history (hours):
 
Tides and Currents Weather Stations Pressure Air Temp Water Temp Dewpoint Dewpoint Depression Visibility Wind Speed Wind Dir Waves Ship Positions

Plato

Last reported at 2014-Dec-21 23:31 UTC. Time now 2014-Dec-21 23:55 UTC.
Position N 53°27' E 014°36'.

Length 88 m; draft 5 m.

Type: Ship. MMSI: 314189000.

Date/timePositionNaut miles runAvg speedWind from/ knotsBaromVisibWave heightAir tempDewpointWater temp
2014-Dec-21 23:31N 53°27' E 014°36'0 0.0
2014-Dec-21 22:33N 53°27' E 014°36'0 0.0
2014-Dec-21 21:32N 53°27' E 014°36'0 0.0
2014-Dec-21 20:32N 53°27' E 014°36'0 0.0
2014-Dec-21 19:31N 53°27' E 014°36'0 0.0
2014-Dec-21 18:31N 53°27' E 014°36'0 0.0
2014-Dec-21 17:33N 53°27' E 014°36'0 0.0
2014-Dec-21 16:32N 53°27' E 014°36'0 0.0
2014-Dec-21 15:32N 53°27' E 014°36'0 0.0
2014-Dec-21 14:31N 53°27' E 014°36'0 0.0
2014-Dec-21 13:31N 53°27' E 014°36'0 0.0
2014-Dec-21 12:33N 53°27' E 014°36'0 0.0
2014-Dec-21 11:32N 53°27' E 014°36'0 0.0
2014-Dec-21 10:32N 53°27' E 014°36'0 0.0
2014-Dec-21 09:31N 53°27' E 014°36'0 0.0
2014-Dec-21 08:32N 53°27' E 014°36'0 0.0
2014-Dec-21 07:31N 53°27' E 014°36'0 0.0
2014-Dec-21 06:31N 53°27' E 014°36'0 0.0
2014-Dec-21 05:30N 53°27' E 014°36'0 0.0
2014-Dec-21 04:32N 53°27' E 014°36'0 0.0
2014-Dec-21 03:32N 53°27' E 014°36'0 0.0
2014-Dec-21 02:31N 53°27' E 014°36'0 0.0
2014-Dec-21 01:31N 53°27' E 014°36'0 0.0
2014-Dec-21 00:33N 53°27' E 014°36'0 0.0
2014-Dec-20 23:31N 53°27' E 014°36'0 0.0
2014-Dec-20 22:34N 53°27' E 014°36'0 0.0
2014-Dec-20 21:33N 53°27' E 014°36'0 0.0
2014-Dec-20 20:33N 53°27' E 014°36'0 0.0
2014-Dec-20 19:32N 53°27' E 014°36'0 0.0
2014-Dec-20 18:31N 53°27' E 014°36'0 0.0
2014-Dec-20 17:31N 53°27' E 014°36'0 0.0
2014-Dec-20 16:33N 53°27' E 014°36'0 0.0
2014-Dec-20 15:31N 53°27' E 014°36'0 0.0
2014-Dec-20 14:33N 53°27' E 014°36'0 0.0
2014-Dec-20 13:32N 53°27' E 014°36'0 0.0
2014-Dec-20 12:32N 53°27' E 014°36'0 0.0
2014-Dec-20 11:33N 53°27' E 014°36'0 0.0
2014-Dec-20 10:32N 53°27' E 014°36'0 0.0
2014-Dec-20 09:33N 53°27' E 014°36'0 0.0
2014-Dec-20 08:31N 53°27' E 014°36'0 0.0
2014-Dec-20 07:33N 53°27' E 014°36'0 0.0
2014-Dec-20 06:33N 53°27' E 014°36'0 0.0
2014-Dec-20 05:33N 53°27' E 014°36'0 0.0
2014-Dec-20 04:32N 53°27' E 014°36'0 0.0
2014-Dec-20 03:32N 53°27' E 014°36'0 0.0
2014-Dec-20 02:31N 53°27' E 014°36'0 0.0
2014-Dec-20 01:33N 53°27' E 014°36'0 0.0
2014-Dec-20 00:33N 53°27' E 014°36'5 4.6
2014-Dec-19 23:33N 53°32' E 014°38'9 9.1
2014-Dec-19 22:32N 53°40' E 014°32'1010.1
2014-Dec-19 21:33N 53°48' E 014°21'16 8.2
2014-Dec-19 19:33N 54°04' E 014°14'9 9.0
2014-Dec-19 18:33N 54°12' E 014°08'67 9.5
2014-Dec-19 11:31N 55°08' E 013°06'9 9.0
2014-Dec-19 10:33N 55°13' E 012°54'9 9.3
2014-Dec-19 09:33N 55°18' E 012°40'9 8.6
2014-Dec-19 08:33N 55°26' E 012°40'10 9.8
2014-Dec-19 07:33N 55°36' E 012°42'1110.7
2014-Dec-19 06:33N 55°47' E 012°42'9 9.3
2014-Dec-19 05:33N 55°56' E 012°38'9 9.3
2014-Dec-19 04:33N 56°05' E 012°35'10 9.6
2014-Dec-19 03:33N 56°11' E 012°21'26 8.0
2014-Dec-19 00:16N 56°33' E 011°57'7 8.0
2014-Dec-18 23:22N 56°40' E 011°54'6 7.7
2014-Dec-18 22:33N 56°46' E 011°51'9 8.2
2014-Dec-18 21:27N 56°55' E 011°45'16 8.4
2014-Dec-18 19:33N 57°10' E 011°36'9 9.0
2014-Dec-18 18:33N 57°18' E 011°30'8 8.0
2014-Dec-18 17:33N 57°26' E 011°25'8 7.9
2014-Dec-18 16:33N 57°32' E 011°15'8 8.0
2014-Dec-18 15:33N 57°37' E 011°04'19 8.3
2014-Dec-18 13:13N 57°47' E 010°33'145 8.2
2014-Dec-17 19:33N 58°14' E 006°03'9 9.0
2014-Dec-17 18:33N 58°20' E 005°51'8 7.9
2014-Dec-17 17:32N 58°25' E 005°40'32 6.5
2014-Dec-17 12:33N 58°52' E 005°05'7 6.6
2014-Dec-17 11:31N 58°58' E 004°58'99 2.7
2014-Dec-15 22:32N 60°37' E 005°02'  
2014-Dec-13 15:18N 63°35' E 009°28'7 8.7
2014-Dec-13 14:27N 63°39' E 009°43'7 7.7
2014-Dec-13 13:33N 63°33' E 009°52'8 8.2
2014-Dec-13 12:33N 63°30' E 010°08'1010.1
2014-Dec-13 11:33N 63°35' E 010°28'1010.2
2014-Dec-13 10:33N 63°41' E 010°46'1110.5
2014-Dec-13 09:28N 63°49' E 011°04'3 0.1
2014-Dec-12 08:33N 63°47' E 011°00'1010.3
2014-Dec-12 07:33N 63°39' E 010°45'1010.3
2014-Dec-12 06:33N 63°32' E 010°28'7 7.3
2014-Dec-12 05:33N 63°28' E 010°14'8 8.0
2014-Dec-12 04:33N 63°29' E 009°56'10 9.2
2014-Dec-12 03:31N 63°38' E 009°47'  

Dump ship's entire track history